Latest Coastal Weather Observations for Norah Head

IDN60701

Issued at 6:45 pm EST Saturday 2 August 2014 (issued every 10 minutes, with the page automatically refreshed every 10 minutes)

About coastal observations | Map of coastal stations | Coastal observations for NSW | Marine services | Other Formats
Station Details ID: 061366 Name: NORAH HEAD AWS Lat: -33.28 Lon: 151.58 Height: 18.8 m
Data from the previous 72 hours. | See also: Recent months at Norah Head
Date/Time
EST
Temp

°C
Wind Pressure Rain
since 9am
mm
Weather Cloud Vis
km
Sea
Height
m
Swell
Dir
 
Speed
knots
Gust
knots
hPa Trend Height
m
Period
s
Dir
02/06:30pm 13.5 S 21 25 1028.5 - 0.0 - - - - - - -
02/06:00pm 13.6 S 19 25 1028.0 - 0.0 - - - - - - -
02/05:30pm 13.5 S 17 24 1027.9 - 0.0 - - - - - - -
02/05:00pm 13.4 S 17 23 1027.5 - 0.0 - - - - - - -
02/04:30pm 13.2 S 18 23 1027.3 - 0.0 - - - - - - -
02/04:00pm 13.2 S 20 27 1027.0 - 0.0 - - - - - - -
02/03:30pm 13.1 S 21 27 1026.6 - 0.0 - - - - - - -
02/03:00pm 13.3 S 18 23 1026.6 - 0.0 - - - - - - -
02/02:30pm 13.6 S 17 22 1026.1 - 0.0 - - - - - - -
02/02:00pm 13.3 S 18 26 1026.1 - 0.0 - - - - - - -
02/01:30pm 13.6 S 17 24 1025.5 - 0.0 - - - - - - -
02/01:00pm 13.3 S 17 24 1025.4 - 0.0 - - - - - - -
02/12:30pm 13.5 SSW 15 22 1025.6 - 0.0 - - - - - - -
02/12:00pm 13.5 S 13 19 1025.6 - 0.0 - - - - - - -
02/11:30am 12.9 S 12 19 1025.7 - 0.0 - - - - - - -
02/11:00am 13.0 S 13 20 1025.6 - 0.0 - - - - - - -
02/10:30am 12.5 SSW 10 16 1025.4 - 0.0 - - - - - - -
02/10:00am 11.7 SSW 10 17 1025.3 - 0.0 - - - - - - -
02/09:30am 11.6 WSW 7 16 1025.1 - 0.0 - - - - - - -
02/09:00am 10.9 WSW 6 12 1024.5 - 0.0 - - - - - - -
02/08:30am 10.0 WSW 4 10 1024.0 - 0.0 - - - - - - -
02/08:00am 9.3 W 3 8 1023.4 - 0.0 - - - - - - -
02/07:30am 8.1 W 4 8 1022.7 - 0.0 - - - - - - -
02/07:00am 6.9 WNW 3 4 1022.1 - 0.0 - - - - - - -
02/06:30am 7.2 W 4 8 1021.6 - 0.0 - - - - - - -
02/06:00am 7.4 WSW 5 7 1020.9 - 0.0 - - - - - - -
02/05:30am 7.7 WSW 3 5 1020.4 - 0.0 - - - - - - -
02/05:00am 7.9 W 4 7 1019.7 - 0.0 - - - - - - -
02/04:30am 8.4 W 4 7 1019.1 - 0.0 - - - - - - -
02/04:00am 8.4 W 5 8 1018.6 - 0.0 - - - - - - -
02/03:30am 8.2 W 5 11 1018.3 - 0.0 - - - - - - -
02/03:00am 8.4 W 6 12 1018.1 - 0.0 - - - - - - -
02/02:30am 8.4 W 5 10 1017.6 - 0.0 - - - - - - -
02/02:00am 8.8 WNW 5 11 1017.6 - 0.0 - - - - - - -
02/01:30am 8.9 W 4 7 1017.5 - 0.0 - - - - - - -
02/01:00am 9.3 W 5 10 1017.3 - 0.0 - - - - - - -
02/12:30am 9.5 W 6 12 1017.1 - 0.0 - - - - - - -
02/12:00am 9.7 WSW 5 10 1017.1 - 0.0 - - - - - - -
 
Date/Time
EST
Temp

°C
Wind Pressure Rain
since 9am
mm
Weather Cloud Vis
km
Sea
Height
m
Swell
Dir
 
Speed
knots
Gust
knots
hPa Trend Height
m
Period
s
Dir
01/11:30pm 10.1 W 8 17 1016.3 - 0.0 - - - - - - -
01/11:00pm 10.3 W 6 15 1016.5 - 0.0 - - - - - - -
01/10:30pm 10.6 WNW 8 18 1015.9 - 0.0 - - - - - - -
01/10:00pm 10.9 WNW 9 19 1015.6 - 0.0 - - - - - - -
01/09:30pm 11.2 WNW 9 22 1015.7 - 0.0 - - - - - - -
01/09:00pm 11.7 W 6 16 1015.5 - 0.0 - - - - - - -
01/08:30pm 12.1 W 7 19 1015.3 - 0.0 - - - - - - -
01/08:00pm 11.8 W 4 7 1015.0 - 0.0 - - - - - - -
01/07:30pm 12.3 WNW 5 10 1014.3 - 0.0 - - - - - - -
01/07:00pm 12.8 WNW 5 11 1013.9 - 0.0 - - - - - - -
01/06:30pm 13.2 WNW 5 11 1013.3 - 0.0 - - - - - - -
01/06:00pm 13.6 WNW 7 15 1012.5 - 0.0 - - - - - - -
01/05:30pm 13.5 WNW 5 12 1011.9 - 0.0 - - - - - - -
01/05:00pm 14.3 W 5 12 1011.2 - 0.0 - - - - - - -
01/04:30pm 15.2 WNW 6 13 1010.8 - 0.0 - - - - - - -
01/04:00pm 15.8 W 7 15 1010.1 - 0.0 - - - - - - -
01/03:30pm 16.3 WSW 8 20 1009.8 - 0.0 - - - - - - -
01/03:00pm 16.7 WSW 10 17 1009.0 - 0.0 - - - - - - -
01/02:30pm 17.0 W 9 21 1008.5 - 0.0 - - - - - - -
01/02:00pm 18.5 W 8 15 1007.8 - 0.0 - - - - - - -
01/01:30pm 18.8 W 7 16 1007.5 - 0.0 - - - - - - -
01/01:00pm 17.7 W 9 17 1007.5 - 0.0 - - - - - - -
01/12:30pm 18.5 W 6 13 1007.3 - 0.0 - - - - - - -
01/12:00pm 19.3 W 6 16 1007.3 - 0.0 - - - - - - -
01/11:30am 19.1 WNW 8 17 1007.8 - 0.0 - - - - - - -
01/11:00am 19.4 W 6 15 1007.7 - 0.0 - - - - - - -
01/10:30am 17.4 SSW 7 10 1007.8 - 0.0 - - - - - - -
01/10:00am 17.5 SW 9 13 1007.9 - 0.0 - - - - - - -
01/09:30am 19.5 NW 4 8 1007.5 - 0.0 - - - - - - -
01/09:00am 19.3 NNW 5 9 1007.3 - 0.0 - - - - - - -
01/08:30am 18.2 NW 5 7 1007.1 - 0.0 - - - - - - -
01/08:00am 16.8 NW 5 6 1006.9 - 0.0 - - - - - - -
01/07:30am 14.0 NW 5 7 1006.6 - 0.0 - - - - - - -
01/07:00am 14.2 NW 4 5 1006.5 - 0.0 - - - - - - -
01/06:30am 14.4 NNW 3 5 1006.1 - 0.0 - - - - - - -
01/06:00am 15.9 N 13 16 1005.4 - 0.0 - - - - - - -
01/05:30am 15.7 N 13 15 1005.2 - 0.0 - - - - - - -
01/05:00am 15.8 N 16 18 1005.2 - 0.0 - - - - - - -
01/04:30am 16.4 N 17 19 1005.1 - 0.0 - - - - - - -
01/04:00am 16.7 N 16 18 1005.5 - 0.0 - - - - - - -
01/03:30am 16.5 N 14 16 1005.9 - 0.0 - - - - - - -
01/03:00am 16.6 N 13 14 1006.4 - 0.0 - - - - - - -
01/02:30am 17.1 N 14 17 1006.8 - 0.0 - - - - - - -
01/02:00am 16.1 N 13 15 1007.0 - 0.0 - - - - - - -
01/01:30am 15.9 N 13 15 1007.2 - 0.0 - - - - - - -
01/01:00am 16.8 N 14 16 1007.2 - 0.0 - - - - - - -
01/12:30am 16.5 NNW 13 16 1007.2 - 0.0 - - - - - - -
01/12:00am 16.5 NNW 11 14 1007.4 - 0.0 - - - - - - -
 
Date/Time
EST
Temp

°C
Wind Pressure Rain
since 9am
mm
Weather Cloud Vis
km
Sea
Height
m
Swell
Dir
 
Speed
knots
Gust
knots
hPa Trend Height
m
Period
s
Dir
31/11:30pm 16.4 NNW 11 14 1007.5 - 0.0 - - - - - - -
31/11:00pm 17.1 N 16 19 1007.7 - 0.0 - - - - - - -
31/10:30pm 17.0 N 15 17 1008.1 - 0.0 - - - - - - -
31/10:00pm 17.6 N 18 20 1008.2 - 0.0 - - - - - - -
31/09:30pm 17.8 N 19 21 1008.2 - 0.0 - - - - - - -
31/09:00pm 17.7 N 17 19 1008.2 - 0.0 - - - - - - -
31/08:30pm 18.4 N 18 22 1008.3 - 0.0 - - - - - - -
31/08:00pm 18.7 N 19 21 1008.3 - 0.0 - - - - - - -
31/07:30pm 18.7 N 20 22 1008.4 - 0.0 - - - - - - -
31/07:00pm 19.4 N 22 26 1008.2 - 0.0 - - - - - - -
31/06:30pm 19.0 N 17 19 1008.7 - 0.0 - - - - - - -
31/06:00pm 19.4 N 17 20 1008.3 - 0.0 - - - - - - -
31/05:30pm 19.3 N 16 19 1008.1 - 0.0 - - - - - - -
31/05:00pm 19.8 N 17 19 1008.3 - 0.0 - - - - - - -
31/04:30pm 20.1 N 17 19 1008.3 - 0.0 - - - - - - -
31/04:00pm 21.3 NNW 16 22 1008.5 - 0.0 - - - - - - -
31/03:30pm 21.6 NNW 11 18 1008.9 - 0.0 - - - - - - -
31/03:00pm 22.9 NW 12 21 1009.0 - 0.0 - - - - - - -
31/02:38pm 23.0 NW 15 26 1009.0 - 0.0 - - - - - - -
31/02:30pm 23.1 NW 12 24 1009.1 - 0.0 - - - - - - -
31/02:00pm 23.3 NW 12 20 1009.6 - 0.0 - - - - - - -
31/01:30pm 23.1 NW 12 20 1010.0 - 0.0 - - - - - - -
31/01:00pm 22.8 NW 13 22 1010.7 - 0.0 - - - - - - -
31/12:30pm 22.9 NNW 10 19 1011.6 - 0.0 - - - - - - -
31/12:00pm 22.8 NNW 10 17 1012.6 - 0.0 - - - - - - -
31/11:30am 22.7 NW 9 13 1013.4 - 0.0 - - - - - - -
31/11:00am 21.5 N 13 17 1014.0 - 0.0 - - - - - - -
31/10:30am 21.7 NNW 12 15 1014.5 - 0.0 - - - - - - -
31/10:00am 20.1 N 14 16 1014.9 - 0.0 - - - - - - -
31/09:30am 18.8 N 18 20 1015.1 - 0.0 - - - - - - -
31/09:00am 18.1 N 19 22 1015.3 - 0.0 - - - - - - -
31/08:30am 17.7 N 16 18 1015.5 - 0.0 - - - - - - -
31/08:00am 16.7 NNW 12 16 1015.6 - 0.0 - - - - - - -
31/07:30am 14.4 NNW 7 10 1015.8 - 0.0 - - - - - - -
31/07:00am 12.0 NNW 5 6 1015.8 - 0.0 - - - - - - -
31/06:30am 12.1 NNW 5 5 1015.9 - 0.0 - - - - - - -
31/06:00am 12.3 NW 4 5 1015.7 - 0.0 - - - - - - -
31/05:30am 12.6 NW 5 7 1015.5 - 0.0 - - - - - - -
31/05:00am 12.5 NW 5 6 1015.5 - 0.0 - - - - - - -
31/04:30am 12.5 NW 5 7 1015.5 - 0.0 - - - - - - -
31/04:00am 11.9 NW 5 7 1015.5 - 0.0 - - - - - - -
31/03:30am 12.5 NNW 5 7 1015.6 - 0.0 - - - - - - -
31/03:00am 12.7 NNW 7 9 1015.7 - 0.0 - - - - - - -
31/02:30am 12.6 NW 7 9 1015.9 - 0.0 - - - - - - -
31/02:00am 12.8 NW 6 8 1016.1 - 0.0 - - - - - - -
31/01:30am 13.5 NW 6 7 1016.3 - 0.0 - - - - - - -
31/01:00am 14.2 WNW 3 5 1016.7 - 0.0 - - - - - - -
31/12:30am 15.0 NNW 6 9 1017.0 - 0.0 - - - - - - -
31/12:00am 14.6 NW 4 7 1017.5 - 0.0 - - - - - - -
 
Date/Time
EST
Temp

°C
Wind Pressure Rain
since 9am
mm
Weather Cloud Vis
km
Sea
Height
m
Swell
Dir
 
Speed
knots
Gust
knots
hPa Trend Height
m
Period
s
Dir
30/11:30pm 15.7 WNW 3 5 1017.6 - 0.0 - - - - - - -
30/11:00pm 15.8 WNW 2 4 1017.8 - 0.0 - - - - - - -
30/10:30pm 15.8 WNW 3 6 1018.1 - 0.0 - - - - - - -
30/10:00pm 16.3 WNW 3 5 1018.1 - 0.0 - - - - - - -
30/09:30pm 16.7 WNW 3 8 1018.2 - 0.0 - - - - - - -
30/09:00pm 17.1 WNW 4 6 1018.1 - 0.0 - - - - - - -
30/08:30pm 16.9 WNW 4 9 1018.0 - 0.0 - - - - - - -
30/08:00pm 16.9 WNW 3 6 1017.9 - 0.0 - - - - - - -
30/07:30pm 17.1 WNW 3 5 1017.7 - 0.0 - - - - - - -
30/07:00pm 17.4 WNW 2 5 1017.3 - 0.0 - - - - - - -

Other Formats:

Comma delimited format used in spreadsheet applications
http://www.bom.gov.au/fwo/IDN60701/IDN60701.95770.axf

JavaScript Object Notation format (JSON) in row-major order
http://www.bom.gov.au/fwo/IDN60701/IDN60701.95770.json